Buffalo, New York
Current Conditions -  °F | °C
As of 6:54 AM on Friday 21 Nov 2014 (Local Time) from KBUF Reporting Station
Light Snow Light Snow  
Wind Chill: -14°   Ceiling: 3200
Heat Index: -7°   Visibility: 9mi
Dew Point: -11°   Wind: 10mph
Humidity: 74%   Direction: 280°W
Pressure: 30.22"   Gusts: NA
Location:  42.89°N, 78.88°W
Report Text: KBUF 211154Z 28009KT 9SM -SN BKN032 BKN050 M07/M11 A3022 RMK AO2 SNB38 SLP248 4/010 PCPN VRY LGT P0000 60000 T10721111 11067 21078 51042
Loading
Personal Weather Stations






























Interactive Weather Map New forecast layout! Learn more

10-Day Weather Forecast

Advertisements
Track Severe Weather on mobile